Time;durP1;ratioP1;P1;durP2;ratioP2;P2;SDS_P1;SDS_P2;PMS_P1;PMS_P2;Temp;Humidity;BMP_temperature;BMP_pressure;BME280_temperature;BME280_humidity;BME280_pressure;Samples;Min_cycle;Max_cycle;Signal;HPM_P1;HPM_P2
2021/05/10 00:01:38;;;;;;;8.38;4.10;;;;;;;8.81;58.36;99679.07;1828883;76;28027;-78
2021/05/10 00:04:14;;;;;;;7.55;4.00;;;;;;;8.84;57.50;99676.91;1800218;78;28013;-80
2021/05/10 00:06:50;;;;;;;5.85;3.00;;;;;;;8.86;57.11;99678.61;1812766;79;22912;-78
2021/05/10 00:09:26;;;;;;;6.28;2.95;;;;;;;8.80;58.62;99683.84;1874154;74;23308;-79
2021/05/10 00:12:08;;;;;;;6.10;3.08;;;;;;;8.73;60.45;99690.83;1798966;79;22806;-77
2021/05/10 00:14:45;;;;;;;8.80;3.83;;;;;;;8.67;58.34;99697.33;1826193;77;28029;-76
2021/05/10 00:17:21;;;;;;;10.03;4.03;;;;;;;8.66;59.14;99691.73;1772570;79;39630;-79
2021/05/10 00:19:57;;;;;;;6.47;3.10;;;;;;;8.67;58.33;99690.84;1840574;76;22894;-80
2021/05/10 00:22:31;;;;;;;5.65;2.83;;;;;;;8.59;58.38;99696.98;1830396;76;22911;-80
2021/05/10 00:25:07;;;;;;;7.25;3.02;;;;;;;8.52;60.07;99699.61;1878152;75;22920;-77
2021/05/10 00:27:42;;;;;;;5.67;2.70;;;;;;;8.47;60.34;99707.84;1811804;79;22949;-80
2021/05/10 00:30:20;;;;;;;8.65;3.20;;;;;;;8.42;59.99;99704.44;1764681;79;23305;-78
2021/05/10 00:32:56;;;;;;;7.95;3.65;;;;;;;8.35;62.15;99701.42;1803885;79;23271;-77
2021/05/10 00:35:32;;;;;;;13.35;5.20;;;;;;;8.27;61.64;99696.72;1857294;74;28820;-78
2021/05/10 00:38:09;;;;;;;9.65;4.17;;;;;;;8.29;62.12;99688.50;1811668;79;22923;-76
2021/05/10 00:40:45;;;;;;;10.93;4.70;;;;;;;8.24;62.30;99687.69;1868607;75;34912;-79
2021/05/10 00:43:26;;;;;;;10.18;4.33;;;;;;;8.25;61.80;99690.69;1811706;78;22972;-78
2021/05/10 00:46:02;;;;;;;9.00;4.17;;;;;;;8.18;63.34;99683.41;1792832;79;22980;-78
2021/05/10 00:48:38;;;;;;;7.10;3.77;;;;;;;8.13;61.74;99676.94;1813548;77;23283;-77
2021/05/10 00:51:13;;;;;;;8.10;3.45;;;;;;;8.08;62.55;99681.30;1823003;78;22910;-78
2021/05/10 00:53:48;;;;;;;6.37;3.42;;;;;;;8.02;63.00;99679.16;1798603;78;22937;-76
2021/05/10 00:56:25;;;;;;;7.12;3.60;;;;;;;7.95;63.82;99679.19;1808635;78;22939;-79
2021/05/10 00:59:07;;;;;;;7.03;4.08;;;;;;;7.90;61.87;99677.08;1803134;78;22924;-77
2021/05/10 01:01:43;;;;;;;8.20;4.40;;;;;;;7.85;62.84;99677.52;1817722;76;28097;-77
2021/05/10 01:04:19;;;;;;;7.30;3.80;;;;;;;7.87;63.07;99678.81;1794989;77;28060;-77
2021/05/10 01:06:54;;;;;;;9.30;3.20;;;;;;;7.88;61.92;99681.41;1814711;78;22973;-76
2021/05/10 01:09:30;;;;;;;5.47;3.05;;;;;;;7.82;64.25;99677.96;1796157;78;23412;-77
2021/05/10 01:12:07;;;;;;;5.28;2.72;;;;;;;7.80;62.21;99683.17;1846320;76;22873;-78
2021/05/10 01:14:49;;;;;;;9.15;3.00;;;;;;;7.78;62.90;99681.02;1812182;78;22937;-78
2021/05/10 01:17:24;;;;;;;5.97;3.08;;;;;;;7.77;63.87;99678.84;1818718;78;23406;-78
2021/05/10 01:19:59;;;;;;;7.78;2.47;;;;;;;7.79;62.62;99684.47;1846746;77;22902;-78
2021/05/10 01:22:44;;;;;;;5.33;2.95;;;;;;;7.80;63.63;99680.58;1891373;76;22867;-77
2021/05/10 01:25:28;;;;;;;7.42;3.22;;;;;;;7.82;63.17;99679.26;1814808;78;22887;-77
2021/05/10 01:28:05;;;;;;;7.05;2.75;;;;;;;7.79;64.39;99679.28;1819547;76;22929;-77
2021/05/10 01:30:50;;;;;;;6.45;2.92;;;;;;;7.77;63.28;99677.55;1818824;76;23439;-77
2021/05/10 01:33:37;;;;;;;7.25;3.27;;;;;;;7.76;64.08;99681.02;1811829;76;22878;-77
2021/05/10 01:36:13;;;;;;;10.72;3.37;;;;;;;7.73;62.89;99682.31;1802612;78;22953;-77
2021/05/10 01:38:49;;;;;;;10.28;4.50;;;;;;;7.67;62.24;99683.63;1777819;78;28140;-77
2021/05/10 01:41:25;;;;;;;8.75;3.72;;;;;;;7.68;62.49;99687.08;1801635;79;22928;-78
2021/05/10 01:44:01;;;;;;;9.13;3.20;;;;;;;7.60;63.77;99687.55;1795959;77;24140;-78
2021/05/10 01:46:37;;;;;;;7.97;3.50;;;;;;;7.54;65.00;99690.59;1817060;78;23356;-77
2021/05/10 01:49:31;;;;;;;8.70;3.77;;;;;;;7.48;62.63;99689.33;1792536;78;22990;-79
2021/05/10 01:52:07;;;;;;;8.53;3.37;;;;;;;7.37;67.19;99690.63;1879290;76;22902;-79
2021/05/10 01:54:51;;;;;;;6.40;3.22;;;;;;;7.30;66.40;99688.06;1806605;79;22932;-76
2021/05/10 01:57:28;;;;;;;5.85;3.15;;;;;;;7.22;66.36;99686.81;1815879;76;23388;-78
2021/05/10 02:00:11;;;;;;;8.63;4.20;;;;;;;7.14;68.06;99682.05;1792128;78;28046;-77
2021/05/10 02:03:11;;;;;;;9.40;3.65;;;;;;;7.12;67.70;99679.91;1820744;77;23380;-79
2021/05/10 02:06:05;;;;;;;9.68;3.40;;;;;;;7.02;68.57;99680.79;1874102;75;22921;-79
2021/05/10 02:08:41;;;;;;;6.05;3.30;;;;;;;6.92;70.05;99679.53;1812979;78;23488;-78
2021/05/10 02:11:35;;;;;;;9.38;3.98;;;;;;;6.86;69.73;99681.23;1865490;75;24107;-79
2021/05/10 02:14:11;;;;;;;11.00;4.33;;;;;;;6.80;69.96;99689.84;1814240;78;22920;-77
2021/05/10 02:17:12;;;;;;;9.95;4.22;;;;;;;6.74;65.87;99689.84;1752594;76;27186;-77
2021/05/10 02:19:48;;;;;;;11.73;4.12;;;;;;;6.67;68.17;99695.90;1820368;76;28976;-78
2021/05/10 02:22:24;;;;;;;6.30;3.08;;;;;;;6.67;65.69;99700.62;1891357;76;22887;-77
2021/05/10 02:24:59;;;;;;;10.65;4.35;;;;;;;6.59;66.27;99700.20;1797846;78;28043;-77
2021/05/10 02:27:35;;;;;;;4.58;2.80;;;;;;;6.59;67.10;99695.89;1890803;76;22834;-77
2021/05/10 02:30:13;;;;;;;7.42;3.35;;;;;;;6.51;68.85;99690.71;1761729;79;22967;-78
2021/05/10 02:32:50;;;;;;;6.60;3.10;;;;;;;6.50;69.89;99688.97;1811325;78;22877;-80
2021/05/10 02:35:27;;;;;;;5.08;2.67;;;;;;;6.50;68.47;99687.69;1818071;78;22903;-77
2021/05/10 02:38:03;;;;;;;8.83;3.72;;;;;;;6.50;69.17;99685.09;1845508;76;28039;-77
2021/05/10 02:40:40;;;;;;;8.98;3.33;;;;;;;6.61;68.95;99687.70;1785268;79;28153;-77
2021/05/10 02:43:17;;;;;;;11.40;3.72;;;;;;;6.72;68.64;99682.53;1795836;79;28165;-76
2021/05/10 02:45:52;;;;;;;8.38;2.83;;;;;;;6.79;68.22;99684.27;1805035;77;22932;-77
2021/05/10 02:48:27;;;;;;;7.05;3.35;;;;;;;6.72;67.98;99684.67;1811226;79;22938;-79
2021/05/10 02:51:03;;;;;;;8.63;4.30;;;;;;;6.61;67.94;99686.86;1804844;76;28608;-76
2021/05/10 02:53:39;;;;;;;11.22;4.30;;;;;;;6.59;69.35;99685.55;1781109;78;28157;-77
2021/05/10 02:56:15;;;;;;;8.98;3.77;;;;;;;6.60;69.85;99682.09;1794946;79;23453;-80
2021/05/10 02:58:50;;;;;;;8.18;3.50;;;;;;;6.52;70.46;99687.69;1829464;76;23769;-76
2021/05/10 03:01:32;;;;;;;6.53;3.20;;;;;;;6.47;69.02;99691.57;1799861;79;23448;-76
2021/05/10 03:04:08;;;;;;;8.58;3.30;;;;;;;6.37;67.95;99694.56;1815229;78;23331;-76
2021/05/10 03:06:44;;;;;;;8.05;3.40;;;;;;;6.29;70.88;99696.28;1798908;78;28145;-77
2021/05/10 03:09:19;;;;;;;5.83;3.10;;;;;;;6.29;70.38;99688.97;1814550;78;22928;-79
2021/05/10 03:11:54;;;;;;;8.13;3.27;;;;;;;6.26;69.70;99689.80;1804222;78;22905;-78
2021/05/10 03:14:30;;;;;;;6.58;2.70;;;;;;;6.26;70.63;99695.41;1830877;76;22902;-78
2021/05/10 03:17:06;;;;;;;7.10;3.20;;;;;;;6.25;70.21;99699.72;1811246;79;22904;-78
2021/05/10 03:19:47;;;;;;;6.72;2.83;;;;;;;6.27;71.47;99702.31;1830348;77;22930;-78
2021/05/10 03:22:23;;;;;;;12.20;3.92;;;;;;;6.28;71.06;99703.58;1822747;77;28138;-76
2021/05/10 03:24:59;;;;;;;5.87;2.83;;;;;;;6.41;69.58;99713.52;1820342;78;22915;-76
2021/05/10 03:30:18;;;;;;;11.35;3.92;;;;;;;6.53;70.12;99713.53;1810920;78;22974;-78
2021/05/10 03:32:54;;;;;;;9.00;4.10;;;;;;;6.56;69.94;99712.26;1827685;78;22925;-77
2021/05/10 03:35:29;;;;;;;9.93;3.17;;;;;;;6.59;70.59;99714.41;1812102;78;22887;-77
2021/05/10 03:38:05;;;;;;;8.05;3.72;;;;;;;6.62;71.25;99720.86;1798024;79;22933;-79
2021/05/10 03:40:41;;;;;;;11.50;4.22;;;;;;;6.65;71.69;99718.29;1808828;76;28606;-78
2021/05/10 03:43:17;;;;;;;11.70;4.10;;;;;;;6.73;70.95;99720.01;1887449;75;22888;-76
2021/05/10 03:45:59;;;;;;;7.47;3.95;;;;;;;6.75;70.00;99723.45;1906489;73;22922;-77
2021/05/10 03:48:35;;;;;;;11.30;4.30;;;;;;;6.75;69.85;99727.77;1811684;79;22941;-78
2021/05/10 03:51:18;;;;;;;9.03;3.75;;;;;;;6.77;70.63;99716.56;1891748;73;22913;-76
2021/05/10 03:53:52;;;;;;;13.38;4.00;;;;;;;6.81;69.39;99726.91;1813809;78;22939;-77
2021/05/10 03:56:28;;;;;;;8.25;4.22;;;;;;;6.83;69.57;99720.88;1829180;77;23411;-77
2021/05/10 03:59:03;;;;;;;8.35;4.20;;;;;;;6.87;70.09;99721.74;1828564;77;23246;-78
2021/05/10 04:01:38;;;;;;;5.80;3.50;;;;;;;6.93;71.16;99717.86;1825866;78;23417;-81
2021/05/10 04:04:25;;;;;;;8.25;4.00;;;;;;;7.00;71.41;99717.41;1824958;76;22869;-78
2021/05/10 04:09:53;;;;;;;10.38;4.33;;;;;;;7.10;71.32;99723.00;1811883;78;23380;-77
2021/05/10 04:15:16;;;;;;;10.58;4.47;;;;;;;7.21;70.68;99722.57;1821228;76;22879;-77
2021/05/10 04:17:50;;;;;;;11.43;4.55;;;;;;;7.27;68.54;99723.84;1801315;78;23358;-79
2021/05/10 04:20:27;;;;;;;9.88;5.08;;;;;;;7.33;68.86;99719.95;1807969;78;28049;-78
2021/05/10 04:23:03;;;;;;;8.90;5.10;;;;;;;7.44;69.47;99716.48;1780590;79;28170;-78
2021/05/10 04:25:39;;;;;;;11.97;4.92;;;;;;;7.56;69.27;99716.48;1807986;78;22910;-77
2021/05/10 04:28:14;;;;;;;10.05;4.10;;;;;;;7.62;68.74;99715.57;1822989;77;22913;-78
2021/05/10 04:30:55;;;;;;;10.05;4.50;;;;;;;7.71;69.11;99715.11;1848638;76;27995;-79
2021/05/10 04:33:33;;;;;;;10.60;4.12;;;;;;;7.87;68.92;99724.12;1791709;79;22944;-78
2021/05/10 04:36:14;;;;;;;8.88;4.05;;;;;;;7.97;68.63;99712.84;1829331;77;23461;-77
2021/05/10 04:38:49;;;;;;;13.83;6.30;;;;;;;8.07;68.04;99716.26;1838454;77;22920;-80
2021/05/10 04:41:25;;;;;;;9.28;4.78;;;;;;;8.15;67.39;99725.70;1823409;77;23208;-78
2021/05/10 04:44:00;;;;;;;10.93;4.75;;;;;;;8.24;66.64;99727.84;1814708;78;22937;-78
2021/05/10 04:46:35;;;;;;;9.15;4.87;;;;;;;8.29;66.83;99727.36;1799279;78;22900;-80
2021/05/10 04:49:10;;;;;;;9.65;4.70;;;;;;;8.33;66.35;99724.73;1815180;78;23419;-79
2021/05/10 04:51:46;;;;;;;16.93;8.78;;;;;;;8.40;66.58;99726.02;1818986;76;38322;-79
2021/05/10 04:54:22;;;;;;;24.10;11.08;;;;;;;8.51;66.45;99730.27;1841418;76;22894;-81
2021/05/10 04:56:58;;;;;;;14.23;5.60;;;;;;;8.61;65.28;99738.84;1812002;78;23418;-77
2021/05/10 04:59:34;;;;;;;15.95;6.90;;;;;;;8.67;64.89;99740.55;1792276;78;28057;-79
2021/05/10 05:02:09;;;;;;;10.40;6.00;;;;;;;8.74;64.08;99742.23;1847132;76;22911;-80
2021/05/10 05:04:52;;;;;;;11.53;6.55;;;;;;;8.79;63.88;99745.63;1800597;78;23413;-78
2021/05/10 05:07:26;;;;;;;14.78;5.90;;;;;;;8.83;63.71;99749.92;1809012;78;22982;-80
2021/05/10 05:10:04;;;;;;;13.72;6.12;;;;;;;8.88;64.04;99739.09;1806990;78;24034;-79
2021/05/10 05:12:39;;;;;;;13.43;6.53;;;;;;;8.97;63.62;99738.14;1781565;79;27713;-79
2021/05/10 05:15:17;;;;;;;9.60;5.22;;;;;;;9.11;63.95;99738.03;1820901;78;23082;-84
2021/05/10 05:17:52;;;;;;;10.10;5.45;;;;;;;9.22;63.55;99737.50;1811748;79;23289;-81
2021/05/10 05:20:30;;;;;;;14.20;5.65;;;;;;;9.27;63.51;99740.05;1806843;78;22907;-78
2021/05/10 05:23:23;;;;;;;10.68;5.45;;;;;;;9.39;63.76;99727.39;1798820;79;22852;-82
2021/05/10 05:26:00;;;;;;;11.40;5.40;;;;;;;9.50;63.16;99728.16;1794420;78;22927;-81
2021/05/10 05:28:36;;;;;;;12.37;6.00;;;;;;;9.57;63.49;99724.63;1849825;76;23047;-80
2021/05/10 05:31:18;;;;;;;12.78;6.25;;;;;;;9.69;63.19;99731.42;1808946;77;22914;-79
2021/05/10 05:33:54;;;;;;;19.02;10.70;;;;;;;9.78;64.12;99739.53;1831533;77;28057;-83
2021/05/10 05:36:37;;;;;;;13.65;6.87;;;;;;;9.91;63.70;99742.41;1754287;79;23007;-83
2021/05/10 05:39:20;;;;;;;10.55;5.45;;;;;;;10.08;63.72;99737.84;1900631;73;23449;-79
2021/05/10 05:41:56;;;;;;;12.83;6.70;;;;;;;10.21;64.15;99737.71;1868714;74;28476;-80
2021/05/10 05:44:36;;;;;;;37.15;7.45;;;;;;;10.29;63.85;99739.31;1850340;75;27948;-80
2021/05/10 05:47:18;;;;;;;10.63;5.75;;;;;;;10.43;64.57;99743.05;1891506;76;22885;-79
2021/05/10 05:49:53;;;;;;;12.68;6.53;;;;;;;10.50;64.16;99749.90;1840971;76;23263;-80
2021/05/10 05:52:29;;;;;;;12.45;6.12;;;;;;;10.58;64.41;99741.11;1773599;79;22946;-78
2021/05/10 05:55:09;;;;;;;17.52;6.60;;;;;;;10.67;64.41;99742.28;1828783;76;22226;-82
2021/05/10 05:57:45;;;;;;;12.75;6.60;;;;;;;10.79;64.27;99747.74;1865920;75;22972;-81
2021/05/10 06:00:21;;;;;;;11.18;5.95;;;;;;;10.86;64.54;99737.64;1801707;78;22901;-80
2021/05/10 06:02:56;;;;;;;13.20;5.75;;;;;;;10.99;63.43;99741.77;1829455;76;22891;-80
2021/05/10 06:05:33;;;;;;;13.13;7.37;;;;;;;11.03;61.47;99743.43;1868453;74;27930;-81
2021/05/10 06:08:09;;;;;;;11.10;5.90;;;;;;;11.12;60.24;99743.29;1835708;77;22762;-81
2021/05/10 06:10:51;;;;;;;15.25;6.15;;;;;;;11.17;59.39;99740.59;1793149;77;22938;-79
2021/05/10 06:13:28;;;;;;;17.07;8.23;;;;;;;11.22;59.62;99744.00;1808728;76;28059;-78
2021/05/10 06:16:06;;;;;;;15.03;7.10;;;;;;;11.42;59.60;99744.06;1853334;76;27612;-81
2021/05/10 06:18:43;;;;;;;14.85;5.78;;;;;;;11.58;58.70;99739.00;1864992;76;22927;-83
2021/05/10 06:21:21;;;;;;;12.07;6.10;;;;;;;11.63;58.11;99733.25;1869447;75;22892;-82
2021/05/10 06:23:57;;;;;;;15.32;6.15;;;;;;;11.71;58.07;99728.74;1783292;78;28717;-82
2021/05/10 06:26:32;;;;;;;11.68;5.33;;;;;;;11.86;57.18;99726.75;1796718;78;22959;-83
2021/05/10 06:29:07;;;;;;;12.13;4.95;;;;;;;11.93;56.93;99721.38;1889363;75;22873;-81
2021/05/10 06:31:48;;;;;;;11.48;4.95;;;;;;;12.09;57.10;99727.59;1872728;76;22887;-81
2021/05/10 06:34:24;;;;;;;8.98;4.97;;;;;;;12.20;56.91;99726.08;1883627;75;22910;-80
2021/05/10 06:37:00;;;;;;;8.13;4.08;;;;;;;12.28;56.43;99732.83;1811045;78;22970;-79
2021/05/10 06:39:36;;;;;;;9.13;4.20;;;;;;;12.37;55.29;99726.98;1793828;78;22913;-81
2021/05/10 06:42:12;;;;;;;14.05;6.22;;;;;;;12.45;55.11;99728.52;1786508;76;28615;-79
2021/05/10 06:44:48;;;;;;;9.68;5.85;;;;;;;12.59;53.90;99710.41;1847028;75;22943;-77
2021/05/10 06:47:26;;;;;;;7.12;4.60;;;;;;;12.65;53.99;99713.75;1836932;76;22905;-81
2021/05/10 06:50:02;;;;;;;8.85;3.67;;;;;;;12.74;54.01;99713.96;1821248;76;22908;-82
2021/05/10 06:52:46;;;;;;;6.85;3.75;;;;;;;12.82;53.01;99705.50;1921048;73;22888;-79
2021/05/10 06:55:22;;;;;;;8.05;4.40;;;;;;;12.81;53.12;99708.13;1792486;78;28936;-81
2021/05/10 06:58:09;;;;;;;11.60;4.97;;;;;;;12.92;53.43;99705.67;1812744;76;22914;-84
2021/05/10 07:00:46;;;;;;;9.40;4.78;;;;;;;13.04;53.94;99715.41;1861180;75;27977;-78
2021/05/10 07:03:24;;;;;;;10.25;4.05;;;;;;;13.24;53.79;99709.67;1772015;79;22985;-82
2021/05/10 07:06:01;;;;;;;12.50;4.40;;;;;;;13.29;53.36;99702.55;1790501;78;28534;-82
2021/05/10 07:08:36;;;;;;;11.68;4.15;;;;;;;13.39;53.27;99705.81;1805009;77;22909;-78
2021/05/10 07:11:11;;;;;;;8.58;3.90;;;;;;;13.47;53.50;99699.96;1791864;78;23443;-81
2021/05/10 07:13:46;;;;;;;10.70;3.70;;;;;;;13.55;53.83;99707.14;1879630;76;22912;-82
2021/05/10 07:16:22;;;;;;;6.50;3.27;;;;;;;13.63;53.02;99709.08;1780816;78;23149;-80
2021/05/10 07:18:58;;;;;;;7.78;4.60;;;;;;;13.72;53.20;99707.50;1817617;77;28044;-81
2021/05/10 07:21:36;;;;;;;5.72;3.30;;;;;;;13.92;52.46;99704.77;1780655;79;22946;-79
2021/05/10 07:24:11;;;;;;;8.30;4.72;;;;;;;14.00;51.27;99702.78;1781817;78;39808;-79
2021/05/10 07:26:55;;;;;;;6.75;3.92;;;;;;;14.16;51.75;99699.27;1754573;79;22996;-78
2021/05/10 07:29:31;;;;;;;6.12;3.62;;;;;;;14.20;51.79;99702.19;1876374;74;22950;-82
2021/05/10 07:32:13;;;;;;;6.40;3.20;;;;;;;14.30;51.02;99702.34;1912431;73;22804;-82
2021/05/10 07:34:49;;;;;;;8.98;3.80;;;;;;;14.35;50.86;99709.19;1858370;76;28572;-82
2021/05/10 07:37:25;;;;;;;6.55;4.22;;;;;;;14.55;51.03;99696.34;1811361;77;22926;-79
2021/05/10 07:40:05;;;;;;;7.67;3.83;;;;;;;14.62;50.67;99697.02;1826640;76;22926;-80
2021/05/10 07:42:41;;;;;;;6.75;3.65;;;;;;;14.70;51.16;99701.12;1769517;79;22833;-80
2021/05/10 07:45:18;;;;;;;7.10;3.70;;;;;;;14.85;50.85;99697.59;1793239;78;22944;-81
2021/05/10 07:47:54;;;;;;;5.62;3.22;;;;;;;14.97;50.68;99701.10;1811605;77;22969;-80
2021/05/10 07:50:31;;;;;;;8.05;3.50;;;;;;;15.03;50.29;99690.88;1872185;74;29027;-79
2021/05/10 07:53:07;;;;;;;6.00;2.87;;;;;;;15.15;49.79;99686.53;1816068;77;22270;-79
2021/05/10 07:55:43;;;;;;;6.20;3.12;;;;;;;15.23;49.02;99694.97;1807467;78;22888;-81
2021/05/10 07:58:27;;;;;;;6.17;2.87;;;;;;;15.27;49.13;99686.56;1805705;79;22954;-78
2021/05/10 08:01:04;;;;;;;6.23;3.40;;;;;;;15.35;49.72;99678.44;1827203;77;38375;-78
2021/05/10 08:03:40;;;;;;;5.17;3.05;;;;;;;15.53;49.37;99684.32;1804810;77;28529;-77
2021/05/10 08:06:17;;;;;;;8.03;3.50;;;;;;;15.69;49.03;99678.91;1818175;77;28771;-80
2021/05/10 08:08:54;;;;;;;6.92;3.10;;;;;;;15.76;48.52;99674.81;1776127;77;28610;-81
2021/05/10 08:11:39;;;;;;;8.95;3.45;;;;;;;15.87;47.84;99678.72;1919334;73;22859;-81
2021/05/10 08:14:17;;;;;;;7.78;3.65;;;;;;;15.90;48.19;99674.69;1797073;78;23369;-79
2021/05/10 08:16:53;;;;;;;9.63;2.90;;;;;;;15.97;48.20;99668.73;1801624;78;22930;-79
2021/05/10 08:19:29;;;;;;;6.58;3.37;;;;;;;16.12;48.41;99671.72;1804263;77;38391;-82
2021/05/10 08:22:06;;;;;;;8.28;3.47;;;;;;;16.33;48.04;99670.00;1804873;76;28284;-80
2021/05/10 08:24:49;;;;;;;5.30;3.00;;;;;;;16.44;47.10;99656.01;1804512;78;22881;-78
2021/05/10 08:27:25;;;;;;;6.67;3.30;;;;;;;16.51;47.19;99661.38;1779014;79;22924;-79
2021/05/10 08:30:08;;;;;;;6.78;3.25;;;;;;;16.65;48.12;99659.52;1829523;76;22678;-78
2021/05/10 08:32:44;;;;;;;9.18;3.05;;;;;;;16.75;47.53;99650.80;1788279;78;22937;-80
2021/05/10 08:35:26;;;;;;;5.70;3.00;;;;;;;16.82;47.17;99645.73;1821237;76;23405;-79
2021/05/10 08:38:03;;;;;;;4.97;2.70;;;;;;;16.94;47.15;99643.05;1787621;79;22920;-78
2021/05/10 08:40:38;;;;;;;4.78;2.70;;;;;;;17.03;46.69;99644.83;1807358;78;22931;-79
2021/05/10 08:43:22;;;;;;;7.05;3.35;;;;;;;17.09;46.36;99634.52;1799519;77;22922;-78
2021/05/10 08:46:00;;;;;;;6.90;3.30;;;;;;;17.14;46.52;99627.27;1807426;78;22894;-80
2021/05/10 08:48:35;;;;;;;6.95;3.37;;;;;;;17.26;47.04;99635.93;1818462;77;28503;-79
2021/05/10 08:51:12;;;;;;;8.28;3.30;;;;;;;17.46;46.66;99622.37;1787403;77;28861;-79
2021/05/10 08:53:48;;;;;;;7.75;3.45;;;;;;;17.66;46.48;99624.09;1837008;76;38376;-79
2021/05/10 08:56:25;;;;;;;6.47;3.58;;;;;;;17.80;44.97;99629.56;1876283;76;23363;-79
2021/05/10 08:59:00;;;;;;;7.28;3.10;;;;;;;17.85;45.61;99624.14;1827509;76;23039;-80
2021/05/10 09:01:59;;;;;;;5.47;2.87;;;;;;;17.87;44.96;99610.45;1784881;79;23122;-79
2021/05/10 09:04:41;;;;;;;9.70;3.33;;;;;;;18.01;45.29;99600.59;1833831;76;28521;-79
2021/05/10 09:10:10;;;;;;;9.55;3.20;;;;;;;18.27;45.46;99585.70;1795956;78;23066;-81
2021/05/10 09:12:52;;;;;;;12.73;6.65;;;;;;;18.39;45.22;99588.67;1806522;77;28669;-80
2021/05/10 09:15:32;;;;;;;8.25;3.75;;;;;;;18.57;44.60;99585.12;1803078;77;22918;-82
2021/05/10 09:18:09;;;;;;;6.28;3.80;;;;;;;18.71;45.21;99584.42;1824655;76;22877;-81
2021/05/10 09:20:45;;;;;;;6.12;2.90;;;;;;;18.87;44.58;99580.56;1808676;78;22914;-80
2021/05/10 09:23:21;;;;;;;10.40;3.00;;;;;;;18.94;44.53;99578.45;1817905;78;22946;-80
2021/05/10 09:25:57;;;;;;;6.40;2.92;;;;;;;19.01;43.64;99581.17;1810859;79;23526;-80
2021/05/10 09:28:38;;;;;;;9.68;4.58;;;;;;;19.07;43.16;99570.31;1790945;79;22948;-80
2021/05/10 09:31:18;;;;;;;5.75;2.60;;;;;;;19.09;42.90;99550.00;1768229;79;22962;-81
2021/05/10 09:33:56;;;;;;;7.12;3.67;;;;;;;19.18;42.84;99556.55;1831184;77;38508;-82
2021/05/10 09:36:39;;;;;;;5.90;3.27;;;;;;;19.27;42.64;99555.59;1817090;79;23077;-81
2021/05/10 09:39:37;;;;;;;9.15;3.00;;;;;;;19.35;42.75;99558.30;1791605;78;22926;-79
2021/05/10 09:42:19;;;;;;;8.40;2.60;;;;;;;19.51;42.38;99553.05;1796697;78;22834;-79
2021/05/10 09:44:55;;;;;;;7.58;2.70;;;;;;;19.57;41.58;99548.27;1885625;75;23709;-80
2021/05/10 09:47:33;;;;;;;6.15;2.55;;;;;;;19.73;42.34;99539.55;1826264;78;23088;-79
2021/05/10 09:50:08;;;;;;;4.97;2.33;;;;;;;19.86;41.35;99544.53;1808759;78;22884;-81
2021/05/10 09:52:55;;;;;;;3.92;2.30;;;;;;;19.95;41.97;99546.63;1811814;79;23103;-81
2021/05/10 09:55:53;;;;;;;8.45;2.62;;;;;;;20.02;41.77;99552.44;1847152;76;29346;-81
2021/05/10 09:58:47;;;;;;;6.15;2.50;;;;;;;20.23;41.37;99543.73;1829020;78;23387;-79
2021/05/10 10:01:41;;;;;;;5.08;2.30;;;;;;;20.31;40.50;99534.90;1783174;79;22984;-80
2021/05/10 10:04:19;;;;;;;4.83;2.30;;;;;;;20.33;40.36;99530.38;1792273;78;23386;-81
2021/05/10 10:06:55;;;;;;;8.90;4.30;;;;;;;20.39;40.40;99515.52;1856766;77;22860;-81
2021/05/10 10:09:31;;;;;;;5.00;2.65;;;;;;;20.52;40.23;99519.59;1858547;76;22898;-82
2021/05/10 10:12:09;;;;;;;11.73;3.40;;;;;;;20.61;39.52;99519.54;1845037;76;22892;-81
2021/05/10 10:14:45;;;;;;;3.95;2.33;;;;;;;20.71;39.54;99507.50;1820811;77;22992;-81
2021/05/10 10:17:21;;;;;;;7.75;2.55;;;;;;;20.77;38.85;99508.45;1775736;79;22935;-81
2021/05/10 10:20:03;;;;;;;9.88;2.70;;;;;;;20.88;38.44;99502.98;1787928;78;28031;-81
2021/05/10 10:22:43;;;;;;;3.67;2.00;;;;;;;21.04;38.99;99493.16;1807229;77;23379;-79
2021/05/10 10:25:21;;;;;;;5.65;2.50;;;;;;;21.17;38.06;99500.70;1785874;79;28729;-81
2021/05/10 10:28:05;;;;;;;7.45;2.42;;;;;;;21.33;37.67;99497.95;1803187;79;22916;-81
2021/05/10 10:30:54;;;;;;;3.60;2.20;;;;;;;21.41;37.93;99493.02;1796868;78;22930;-81
2021/05/10 10:33:48;;;;;;;11.22;2.50;;;;;;;21.47;38.05;99486.98;1867073;75;22914;-80
2021/05/10 10:36:28;;;;;;;4.47;2.00;;;;;;;21.57;37.56;99481.02;1814442;78;22900;-79
2021/05/10 10:42:05;;;;;;;7.08;2.30;;;;;;;21.88;35.65;99477.68;1791041;78;28038;-80
2021/05/10 10:44:46;;;;;;;3.92;1.77;;;;;;;22.11;35.79;99477.97;1805620;78;22866;-82
2021/05/10 10:47:46;;;;;;;6.10;2.00;;;;;;;22.31;36.70;99474.86;1800281;78;23413;-83
2021/05/10 10:50:24;;;;;;;5.40;2.20;;;;;;;22.52;36.10;99467.27;1844272;75;22243;-83
2021/05/10 10:53:03;;;;;;;7.33;1.90;;;;;;;22.62;35.00;99460.82;1801681;79;22995;-84
2021/05/10 10:55:45;;;;;;;6.58;2.15;;;;;;;22.67;34.25;99463.17;1794162;78;22965;-82
2021/05/10 10:58:22;;;;;;;5.67;2.35;;;;;;;22.73;33.98;99463.58;1808919;77;22916;-82
2021/05/10 11:01:18;;;;;;;6.00;2.00;;;;;;;22.71;33.91;99464.17;1755078;79;22982;-83
2021/05/10 11:03:52;;;;;;;4.33;2.10;;;;;;;22.83;34.56;99463.80;1837592;75;23006;-83
2021/05/10 11:06:50;;;;;;;5.92;2.25;;;;;;;22.92;34.54;99451.69;1827210;77;22736;-81
2021/05/10 11:09:52;;;;;;;4.70;1.92;;;;;;;22.95;33.21;99448.83;1748352;79;28792;-82
2021/05/10 11:12:48;;;;;;;6.47;1.90;;;;;;;23.13;33.66;99442.24;1794796;78;22923;-83
2021/05/10 11:15:45;;;;;;;4.85;1.70;;;;;;;23.43;33.64;99434.35;1785800;78;22947;-84
2021/05/10 11:21:37;;;;;;;7.25;2.10;;;;;;;23.86;31.51;99421.92;1799189;78;22947;-82
2021/05/10 11:24:27;;;;;;;4.58;2.10;;;;;;;23.80;31.64;99421.90;1807649;78;23128;-82
2021/05/10 11:27:11;;;;;;;6.05;2.00;;;;;;;23.87;32.21;99420.95;1785373;79;22596;-82
2021/05/10 11:29:50;;;;;;;4.37;1.72;;;;;;;24.10;30.81;99419.22;1807480;77;22901;-86
2021/05/10 11:32:52;;;;;;;5.70;1.82;;;;;;;24.36;31.05;99415.05;1812793;78;23090;-83
2021/05/10 11:35:29;;;;;;;4.72;1.98;;;;;;;24.52;31.47;99420.05;1826446;77;23031;-83
2021/05/10 11:38:08;;;;;;;6.83;1.98;;;;;;;24.57;30.08;99405.45;1807739;79;23546;-83
2021/05/10 11:40:50;;;;;;;5.17;1.72;;;;;;;24.60;29.18;99397.70;1810157;77;23392;-83
2021/05/10 11:43:25;;;;;;;2.85;1.77;;;;;;;24.65;30.20;99396.88;1821401;76;23093;-82
2021/05/10 11:46:07;;;;;;;4.22;1.60;;;;;;;24.80;29.64;99391.65;1804864;77;22954;-82
2021/05/10 11:48:43;;;;;;;4.37;1.60;;;;;;;24.95;29.86;99385.61;1798813;79;22948;-82
2021/05/10 11:51:23;;;;;;;2.70;1.57;;;;;;;25.15;27.91;99380.00;1765606;79;23080;-84
2021/05/10 11:54:03;;;;;;;3.80;1.85;;;;;;;25.40;28.81;99372.70;1798634;79;23022;-83
2021/05/10 11:59:35;;;;;;;9.45;1.95;;;;;;;26.03;29.14;99361.31;1823945;77;23089;-83
2021/05/10 12:02:17;;;;;;;8.35;2.60;;;;;;;26.47;26.83;99359.29;1800317;79;22915;-83
2021/05/10 12:04:56;;;;;;;4.25;1.70;;;;;;;26.92;27.43;99350.92;1810032;79;22943;-83
2021/05/10 12:07:34;;;;;;;4.33;1.70;;;;;;;27.28;25.33;99349.95;1819673;79;22907;-84
2021/05/10 12:10:15;;;;;;;5.37;2.47;;;;;;;27.57;25.54;99345.47;1843331;76;22944;-83
2021/05/10 12:12:53;;;;;;;7.50;4.90;;;;;;;27.86;26.52;99340.58;1834008;77;23097;-83
2021/05/10 12:15:30;;;;;;;3.77;1.60;;;;;;;28.17;21.99;99340.38;1793174;79;22929;-83
2021/05/10 12:18:07;;;;;;;3.77;1.70;;;;;;;28.32;22.50;99340.27;1832674;77;22883;-84
2021/05/10 12:20:43;;;;;;;5.30;1.65;;;;;;;28.44;22.55;99336.08;1809221;79;22290;-83
2021/05/10 12:23:19;;;;;;;5.15;1.80;;;;;;;28.88;23.25;99332.30;1823915;78;28191;-84
2021/05/10 12:25:54;;;;;;;7.25;2.00;;;;;;;29.32;21.26;99326.58;1815270;78;22924;-83
2021/05/10 12:28:30;;;;;;;7.83;1.70;;;;;;;29.96;23.21;99317.06;1809274;78;28113;-82
2021/05/10 12:31:06;;;;;;;6.90;1.80;;;;;;;31.42;19.74;99322.34;1808029;78;28041;-84
2021/05/10 12:33:46;;;;;;;4.10;1.60;;;;;;;31.41;18.85;99315.28;1804888;78;28492;-84
2021/05/10 12:36:21;;;;;;;3.15;1.50;;;;;;;31.93;20.13;99320.81;1824279;77;27950;-84
2021/05/10 12:39:13;;;;;;;3.37;1.60;;;;;;;32.25;17.99;99305.99;1826728;76;22945;-85
2021/05/10 12:42:17;;;;;;;5.40;2.33;;;;;;;32.64;17.25;99301.14;1828262;76;23015;-83
2021/05/10 12:45:07;;;;;;;5.60;2.27;;;;;;;33.60;17.17;99293.59;1854298;77;23707;-85
2021/05/10 12:58:36;;;;;;;3.95;1.50;;;;;;;36.77;15.25;99282.41;1802281;79;22435;-84
2021/05/10 13:01:29;;;;;;;4.92;1.50;;;;;;;37.24;14.74;99285.22;1818553;76;22869;-85